sensor_id;sensor_type;location;lat;lon;timestamp;P1;durP1;ratioP1;P2;durP2;ratioP2
9675;SDS011;4876;42.656;23.292;2023-05-16T00:01:00;19.33;;;14.93;;
9675;SDS011;4876;42.656;23.292;2023-05-16T00:03:28;23.90;;;14.30;;
9675;SDS011;4876;42.656;23.292;2023-05-16T00:05:55;17.63;;;13.97;;
9675;SDS011;4876;42.656;23.292;2023-05-16T00:08:22;19.97;;;14.40;;
9675;SDS011;4876;42.656;23.292;2023-05-16T00:10:48;24.20;;;15.30;;
9675;SDS011;4876;42.656;23.292;2023-05-16T00:13:15;20.83;;;14.60;;
9675;SDS011;4876;42.656;23.292;2023-05-16T00:15:46;18.17;;;15.57;;
9675;SDS011;4876;42.656;23.292;2023-05-16T00:18:13;19.63;;;14.50;;
9675;SDS011;4876;42.656;23.292;2023-05-16T00:20:42;16.20;;;14.43;;
9675;SDS011;4876;42.656;23.292;2023-05-16T00:23:09;18.97;;;14.57;;
9675;SDS011;4876;42.656;23.292;2023-05-16T00:25:54;17.73;;;14.63;;
9675;SDS011;4876;42.656;23.292;2023-05-16T00:28:21;23.43;;;15.07;;
9675;SDS011;4876;42.656;23.292;2023-05-16T00:30:48;18.47;;;14.27;;
9675;SDS011;4876;42.656;23.292;2023-05-16T00:33:14;18.70;;;14.47;;
9675;SDS011;4876;42.656;23.292;2023-05-16T00:35:42;18.97;;;14.60;;
9675;SDS011;4876;42.656;23.292;2023-05-16T00:38:09;17.57;;;14.57;;
9675;SDS011;4876;42.656;23.292;2023-05-16T00:40:36;23.60;;;15.20;;
9675;SDS011;4876;42.656;23.292;2023-05-16T00:43:03;23.67;;;15.73;;
9675;SDS011;4876;42.656;23.292;2023-05-16T00:45:30;22.17;;;16.60;;
9675;SDS011;4876;42.656;23.292;2023-05-16T00:47:57;23.37;;;16.00;;
9675;SDS011;4876;42.656;23.292;2023-05-16T00:50:24;23.23;;;16.97;;
9675;SDS011;4876;42.656;23.292;2023-05-16T00:52:52;18.87;;;15.93;;
9675;SDS011;4876;42.656;23.292;2023-05-16T00:55:19;21.77;;;16.57;;
9675;SDS011;4876;42.656;23.292;2023-05-16T00:57:45;22.83;;;16.93;;
9675;SDS011;4876;42.656;23.292;2023-05-16T01:00:12;23.23;;;16.67;;
9675;SDS011;4876;42.656;23.292;2023-05-16T01:02:40;23.87;;;16.50;;
9675;SDS011;4876;42.656;23.292;2023-05-16T01:05:08;20.17;;;17.10;;
9675;SDS011;4876;42.656;23.292;2023-05-16T01:07:35;24.57;;;17.27;;
9675;SDS011;4876;42.656;23.292;2023-05-16T01:10:03;21.83;;;17.73;;
9675;SDS011;4876;42.656;23.292;2023-05-16T01:12:35;23.27;;;17.27;;
9675;SDS011;4876;42.656;23.292;2023-05-16T01:15:07;23.37;;;17.30;;
9675;SDS011;4876;42.656;23.292;2023-05-16T01:17:40;24.03;;;16.77;;
9675;SDS011;4876;42.656;23.292;2023-05-16T01:20:16;18.07;;;16.27;;
9675;SDS011;4876;42.656;23.292;2023-05-16T01:22:51;23.00;;;17.43;;
9675;SDS011;4876;42.656;23.292;2023-05-16T01:25:36;19.00;;;17.07;;
9675;SDS011;4876;42.656;23.292;2023-05-16T01:28:13;23.50;;;17.03;;
9675;SDS011;4876;42.656;23.292;2023-05-16T01:30:42;23.87;;;17.30;;
9675;SDS011;4876;42.656;23.292;2023-05-16T01:33:09;25.90;;;16.93;;
9675;SDS011;4876;42.656;23.292;2023-05-16T01:35:38;21.40;;;16.73;;
9675;SDS011;4876;42.656;23.292;2023-05-16T01:38:10;19.83;;;17.43;;
9675;SDS011;4876;42.656;23.292;2023-05-16T01:40:44;24.90;;;18.10;;
9675;SDS011;4876;42.656;23.292;2023-05-16T01:43:19;20.53;;;17.03;;
9675;SDS011;4876;42.656;23.292;2023-05-16T01:45:52;17.60;;;15.53;;
9675;SDS011;4876;42.656;23.292;2023-05-16T01:48:25;18.33;;;16.43;;
9675;SDS011;4876;42.656;23.292;2023-05-16T01:50:55;18.93;;;16.93;;
9675;SDS011;4876;42.656;23.292;2023-05-16T01:53:26;19.67;;;17.20;;
9675;SDS011;4876;42.656;23.292;2023-05-16T01:55:55;19.20;;;16.77;;
9675;SDS011;4876;42.656;23.292;2023-05-16T01:58:26;21.03;;;17.80;;
9675;SDS011;4876;42.656;23.292;2023-05-16T02:00:58;21.30;;;16.87;;
9675;SDS011;4876;42.656;23.292;2023-05-16T02:03:26;21.27;;;17.23;;
9675;SDS011;4876;42.656;23.292;2023-05-16T02:05:53;19.43;;;17.43;;
9675;SDS011;4876;42.656;23.292;2023-05-16T02:08:20;22.37;;;17.00;;
9675;SDS011;4876;42.656;23.292;2023-05-16T02:10:46;21.37;;;17.50;;
9675;SDS011;4876;42.656;23.292;2023-05-16T02:13:13;21.17;;;17.40;;
9675;SDS011;4876;42.656;23.292;2023-05-16T02:15:41;18.83;;;16.83;;
9675;SDS011;4876;42.656;23.292;2023-05-16T02:18:08;20.33;;;16.60;;
9675;SDS011;4876;42.656;23.292;2023-05-16T02:20:36;20.07;;;17.33;;
9675;SDS011;4876;42.656;23.292;2023-05-16T02:23:03;22.37;;;16.97;;
9675;SDS011;4876;42.656;23.292;2023-05-16T02:25:30;26.33;;;17.20;;
9675;SDS011;4876;42.656;23.292;2023-05-16T02:27:57;19.73;;;16.43;;
9675;SDS011;4876;42.656;23.292;2023-05-16T02:30:24;19.07;;;17.07;;
9675;SDS011;4876;42.656;23.292;2023-05-16T02:32:52;18.47;;;16.57;;
9675;SDS011;4876;42.656;23.292;2023-05-16T02:35:18;22.57;;;16.77;;
9675;SDS011;4876;42.656;23.292;2023-05-16T02:37:45;21.37;;;16.70;;
9675;SDS011;4876;42.656;23.292;2023-05-16T02:40:12;17.40;;;15.60;;
9675;SDS011;4876;42.656;23.292;2023-05-16T02:42:39;22.97;;;16.37;;
9675;SDS011;4876;42.656;23.292;2023-05-16T02:45:06;22.40;;;16.47;;
9675;SDS011;4876;42.656;23.292;2023-05-16T02:47:34;20.53;;;16.77;;
9675;SDS011;4876;42.656;23.292;2023-05-16T02:50:02;21.83;;;15.73;;
9675;SDS011;4876;42.656;23.292;2023-05-16T02:52:30;17.53;;;15.63;;
9675;SDS011;4876;42.656;23.292;2023-05-16T02:54:57;20.00;;;16.40;;
9675;SDS011;4876;42.656;23.292;2023-05-16T02:57:23;21.97;;;16.63;;
9675;SDS011;4876;42.656;23.292;2023-05-16T02:59:50;18.57;;;15.20;;
9675;SDS011;4876;42.656;23.292;2023-05-16T03:02:17;21.43;;;15.57;;
9675;SDS011;4876;42.656;23.292;2023-05-16T03:04:44;22.93;;;17.00;;
9675;SDS011;4876;42.656;23.292;2023-05-16T03:07:12;19.67;;;16.00;;
9675;SDS011;4876;42.656;23.292;2023-05-16T03:09:38;22.23;;;15.43;;
9675;SDS011;4876;42.656;23.292;2023-05-16T03:12:06;26.23;;;15.10;;
9675;SDS011;4876;42.656;23.292;2023-05-16T03:14:33;22.60;;;16.10;;
9675;SDS011;4876;42.656;23.292;2023-05-16T03:17:00;23.17;;;16.13;;
9675;SDS011;4876;42.656;23.292;2023-05-16T03:19:26;21.33;;;15.63;;
9675;SDS011;4876;42.656;23.292;2023-05-16T03:21:53;19.70;;;16.03;;
9675;SDS011;4876;42.656;23.292;2023-05-16T03:24:21;25.17;;;15.87;;
9675;SDS011;4876;42.656;23.292;2023-05-16T03:26:49;19.27;;;15.90;;
9675;SDS011;4876;42.656;23.292;2023-05-16T03:29:16;25.53;;;16.73;;
9675;SDS011;4876;42.656;23.292;2023-05-16T03:31:43;19.50;;;15.37;;
9675;SDS011;4876;42.656;23.292;2023-05-16T03:34:09;24.40;;;16.83;;
9675;SDS011;4876;42.656;23.292;2023-05-16T03:36:37;22.30;;;17.07;;
9675;SDS011;4876;42.656;23.292;2023-05-16T03:39:05;17.27;;;15.47;;
9675;SDS011;4876;42.656;23.292;2023-05-16T03:41:34;24.97;;;16.37;;
9675;SDS011;4876;42.656;23.292;2023-05-16T03:44:00;25.37;;;15.37;;
9675;SDS011;4876;42.656;23.292;2023-05-16T03:46:27;40.17;;;16.73;;
9675;SDS011;4876;42.656;23.292;2023-05-16T03:48:54;29.30;;;16.37;;
9675;SDS011;4876;42.656;23.292;2023-05-16T03:51:21;24.30;;;15.60;;
9675;SDS011;4876;42.656;23.292;2023-05-16T03:53:47;20.67;;;16.87;;
9675;SDS011;4876;42.656;23.292;2023-05-16T03:56:14;20.93;;;17.00;;
9675;SDS011;4876;42.656;23.292;2023-05-16T03:58:42;23.70;;;15.67;;
9675;SDS011;4876;42.656;23.292;2023-05-16T04:01:09;23.23;;;16.20;;
9675;SDS011;4876;42.656;23.292;2023-05-16T04:03:36;32.77;;;17.00;;
9675;SDS011;4876;42.656;23.292;2023-05-16T04:06:02;25.73;;;16.63;;
9675;SDS011;4876;42.656;23.292;2023-05-16T04:08:30;26.70;;;16.97;;
9675;SDS011;4876;42.656;23.292;2023-05-16T04:10:57;27.33;;;16.80;;
9675;SDS011;4876;42.656;23.292;2023-05-16T04:13:23;22.87;;;15.97;;
9675;SDS011;4876;42.656;23.292;2023-05-16T04:15:52;29.13;;;16.27;;
9675;SDS011;4876;42.656;23.292;2023-05-16T04:18:18;32.83;;;17.00;;
9675;SDS011;4876;42.656;23.292;2023-05-16T04:20:45;27.33;;;17.63;;
9675;SDS011;4876;42.656;23.292;2023-05-16T04:23:12;30.07;;;17.60;;
9675;SDS011;4876;42.656;23.292;2023-05-16T04:25:39;26.77;;;16.17;;
9675;SDS011;4876;42.656;23.292;2023-05-16T04:28:07;26.33;;;17.57;;
9675;SDS011;4876;42.656;23.292;2023-05-16T04:30:33;24.03;;;18.10;;
9675;SDS011;4876;42.656;23.292;2023-05-16T04:33:02;23.27;;;18.13;;
9675;SDS011;4876;42.656;23.292;2023-05-16T04:35:28;26.17;;;18.83;;
9675;SDS011;4876;42.656;23.292;2023-05-16T04:37:55;33.57;;;19.27;;
9675;SDS011;4876;42.656;23.292;2023-05-16T04:40:22;37.50;;;19.27;;
9675;SDS011;4876;42.656;23.292;2023-05-16T04:42:49;39.17;;;19.50;;
9675;SDS011;4876;42.656;23.292;2023-05-16T04:45:17;40.77;;;18.70;;
9675;SDS011;4876;42.656;23.292;2023-05-16T04:47:44;31.77;;;20.27;;
9675;SDS011;4876;42.656;23.292;2023-05-16T04:50:12;32.73;;;19.13;;
9675;SDS011;4876;42.656;23.292;2023-05-16T04:52:40;31.70;;;18.90;;
9675;SDS011;4876;42.656;23.292;2023-05-16T04:55:07;32.20;;;18.53;;
9675;SDS011;4876;42.656;23.292;2023-05-16T04:57:34;29.53;;;18.50;;
9675;SDS011;4876;42.656;23.292;2023-05-16T05:00:01;27.23;;;18.17;;
9675;SDS011;4876;42.656;23.292;2023-05-16T05:02:31;27.30;;;18.37;;
9675;SDS011;4876;42.656;23.292;2023-05-16T05:04:57;33.83;;;18.43;;
9675;SDS011;4876;42.656;23.292;2023-05-16T05:07:25;26.97;;;18.97;;
9675;SDS011;4876;42.656;23.292;2023-05-16T05:09:53;24.40;;;18.63;;
9675;SDS011;4876;42.656;23.292;2023-05-16T05:12:21;31.10;;;19.07;;
9675;SDS011;4876;42.656;23.292;2023-05-16T05:14:47;32.30;;;18.23;;
9675;SDS011;4876;42.656;23.292;2023-05-16T05:17:14;42.67;;;19.03;;
9675;SDS011;4876;42.656;23.292;2023-05-16T05:19:41;26.33;;;18.97;;
9675;SDS011;4876;42.656;23.292;2023-05-16T05:22:08;22.53;;;18.40;;
9675;SDS011;4876;42.656;23.292;2023-05-16T05:24:36;32.37;;;18.80;;
9675;SDS011;4876;42.656;23.292;2023-05-16T05:27:03;36.33;;;19.13;;
9675;SDS011;4876;42.656;23.292;2023-05-16T05:29:30;42.30;;;21.07;;
9675;SDS011;4876;42.656;23.292;2023-05-16T05:31:56;37.17;;;19.63;;
9675;SDS011;4876;42.656;23.292;2023-05-16T05:34:23;52.80;;;20.57;;
9675;SDS011;4876;42.656;23.292;2023-05-16T05:36:50;26.13;;;16.67;;
9675;SDS011;4876;42.656;23.292;2023-05-16T05:39:17;21.43;;;14.13;;
9675;SDS011;4876;42.656;23.292;2023-05-16T05:41:45;17.57;;;11.90;;
9675;SDS011;4876;42.656;23.292;2023-05-16T05:44:11;16.37;;;11.93;;
9675;SDS011;4876;42.656;23.292;2023-05-16T05:46:38;13.30;;;9.77;;
9675;SDS011;4876;42.656;23.292;2023-05-16T05:49:05;9.97;;;8.80;;
9675;SDS011;4876;42.656;23.292;2023-05-16T05:51:32;18.23;;;11.93;;
9675;SDS011;4876;42.656;23.292;2023-05-16T05:53:59;10.13;;;8.23;;
9675;SDS011;4876;42.656;23.292;2023-05-16T05:56:26;16.83;;;10.63;;
9675;SDS011;4876;42.656;23.292;2023-05-16T05:58:54;12.43;;;8.27;;
9675;SDS011;4876;42.656;23.292;2023-05-16T06:01:21;11.50;;;8.63;;
9675;SDS011;4876;42.656;23.292;2023-05-16T06:03:48;14.47;;;9.20;;
9675;SDS011;4876;42.656;23.292;2023-05-16T06:06:16;9.10;;;7.47;;
9675;SDS011;4876;42.656;23.292;2023-05-16T06:08:43;18.43;;;10.23;;
9675;SDS011;4876;42.656;23.292;2023-05-16T06:11:10;18.77;;;9.67;;
9675;SDS011;4876;42.656;23.292;2023-05-16T06:13:36;13.37;;;9.63;;
9675;SDS011;4876;42.656;23.292;2023-05-16T06:16:05;15.70;;;10.63;;
9675;SDS011;4876;42.656;23.292;2023-05-16T06:18:32;16.80;;;10.43;;
9675;SDS011;4876;42.656;23.292;2023-05-16T06:20:58;10.87;;;9.77;;
9675;SDS011;4876;42.656;23.292;2023-05-16T06:23:25;14.23;;;9.07;;
9675;SDS011;4876;42.656;23.292;2023-05-16T06:25:52;18.27;;;9.23;;
9675;SDS011;4876;42.656;23.292;2023-05-16T06:28:19;7.70;;;6.90;;
9675;SDS011;4876;42.656;23.292;2023-05-16T06:30:45;9.67;;;7.93;;
9675;SDS011;4876;42.656;23.292;2023-05-16T06:33:16;13.17;;;7.40;;
9675;SDS011;4876;42.656;23.292;2023-05-16T06:35:43;11.70;;;7.60;;
9675;SDS011;4876;42.656;23.292;2023-05-16T06:38:09;13.13;;;7.83;;
9675;SDS011;4876;42.656;23.292;2023-05-16T06:40:36;7.37;;;6.03;;
9675;SDS011;4876;42.656;23.292;2023-05-16T06:43:03;8.97;;;6.33;;
9675;SDS011;4876;42.656;23.292;2023-05-16T06:45:30;16.50;;;7.67;;
9675;SDS011;4876;42.656;23.292;2023-05-16T06:47:57;14.87;;;7.97;;
9675;SDS011;4876;42.656;23.292;2023-05-16T06:50:25;13.40;;;9.17;;
9675;SDS011;4876;42.656;23.292;2023-05-16T06:52:51;11.83;;;7.77;;
9675;SDS011;4876;42.656;23.292;2023-05-16T06:55:18;16.90;;;6.80;;
9675;SDS011;4876;42.656;23.292;2023-05-16T06:57:45;12.00;;;7.23;;
9675;SDS011;4876;42.656;23.292;2023-05-16T07:00:12;15.40;;;7.93;;
9675;SDS011;4876;42.656;23.292;2023-05-16T07:02:40;16.23;;;8.13;;
9675;SDS011;4876;42.656;23.292;2023-05-16T07:05:07;14.03;;;6.67;;
9675;SDS011;4876;42.656;23.292;2023-05-16T07:07:35;15.53;;;7.73;;
9675;SDS011;4876;42.656;23.292;2023-05-16T07:10:02;14.03;;;6.90;;
9675;SDS011;4876;42.656;23.292;2023-05-16T07:12:29;13.60;;;7.03;;
9675;SDS011;4876;42.656;23.292;2023-05-16T07:14:56;14.23;;;7.60;;
9675;SDS011;4876;42.656;23.292;2023-05-16T07:17:23;10.10;;;6.50;;
9675;SDS011;4876;42.656;23.292;2023-05-16T07:19:50;13.50;;;8.70;;
9675;SDS011;4876;42.656;23.292;2023-05-16T07:22:17;16.37;;;9.03;;
9675;SDS011;4876;42.656;23.292;2023-05-16T07:24:45;9.70;;;7.70;;
9675;SDS011;4876;42.656;23.292;2023-05-16T07:27:12;12.90;;;7.73;;
9675;SDS011;4876;42.656;23.292;2023-05-16T07:29:39;12.53;;;7.60;;
9675;SDS011;4876;42.656;23.292;2023-05-16T07:32:06;8.40;;;6.03;;
9675;SDS011;4876;42.656;23.292;2023-05-16T07:34:33;9.90;;;7.07;;
9675;SDS011;4876;42.656;23.292;2023-05-16T07:37:00;10.73;;;7.43;;
9675;SDS011;4876;42.656;23.292;2023-05-16T07:39:27;13.57;;;8.50;;
9675;SDS011;4876;42.656;23.292;2023-05-16T07:41:55;17.27;;;9.33;;
9675;SDS011;4876;42.656;23.292;2023-05-16T07:44:22;17.10;;;9.70;;
9675;SDS011;4876;42.656;23.292;2023-05-16T07:46:49;14.30;;;9.80;;
9675;SDS011;4876;42.656;23.292;2023-05-16T07:49:16;17.83;;;9.10;;
9675;SDS011;4876;42.656;23.292;2023-05-16T07:51:42;8.53;;;6.23;;
9675;SDS011;4876;42.656;23.292;2023-05-16T07:54:09;20.77;;;10.13;;
9675;SDS011;4876;42.656;23.292;2023-05-16T07:56:36;11.47;;;7.37;;
9675;SDS011;4876;42.656;23.292;2023-05-16T07:59:04;11.37;;;9.50;;
9675;SDS011;4876;42.656;23.292;2023-05-16T08:01:31;16.07;;;8.83;;
9675;SDS011;4876;42.656;23.292;2023-05-16T08:03:58;16.00;;;8.00;;
9675;SDS011;4876;42.656;23.292;2023-05-16T08:06:24;15.40;;;6.43;;
9675;SDS011;4876;42.656;23.292;2023-05-16T08:08:51;12.67;;;6.87;;
9675;SDS011;4876;42.656;23.292;2023-05-16T08:11:18;8.20;;;6.33;;
9675;SDS011;4876;42.656;23.292;2023-05-16T08:13:46;8.67;;;7.23;;
9675;SDS011;4876;42.656;23.292;2023-05-16T08:16:14;14.93;;;6.27;;
9675;SDS011;4876;42.656;23.292;2023-05-16T08:18:41;10.67;;;6.60;;
9675;SDS011;4876;42.656;23.292;2023-05-16T08:21:08;9.90;;;6.00;;
9675;SDS011;4876;42.656;23.292;2023-05-16T08:23:35;13.63;;;7.70;;
9675;SDS011;4876;42.656;23.292;2023-05-16T08:26:01;15.83;;;8.10;;
9675;SDS011;4876;42.656;23.292;2023-05-16T08:28:28;11.57;;;6.63;;
9675;SDS011;4876;42.656;23.292;2023-05-16T08:30:55;16.83;;;9.17;;
9675;SDS011;4876;42.656;23.292;2023-05-16T08:33:23;19.50;;;9.63;;
9675;SDS011;4876;42.656;23.292;2023-05-16T08:35:50;15.17;;;8.17;;
9675;SDS011;4876;42.656;23.292;2023-05-16T08:38:18;17.23;;;8.73;;
9675;SDS011;4876;42.656;23.292;2023-05-16T08:40:44;13.60;;;8.10;;
9675;SDS011;4876;42.656;23.292;2023-05-16T08:43:12;12.90;;;7.60;;
9675;SDS011;4876;42.656;23.292;2023-05-16T08:45:39;7.70;;;6.87;;
9675;SDS011;4876;42.656;23.292;2023-05-16T08:48:06;9.47;;;6.70;;
9675;SDS011;4876;42.656;23.292;2023-05-16T08:50:38;10.97;;;7.47;;
9675;SDS011;4876;42.656;23.292;2023-05-16T08:53:07;9.27;;;6.70;;
9675;SDS011;4876;42.656;23.292;2023-05-16T08:55:37;14.10;;;6.57;;
9675;SDS011;4876;42.656;23.292;2023-05-16T08:58:05;16.33;;;7.87;;
9675;SDS011;4876;42.656;23.292;2023-05-16T09:00:32;10.57;;;5.87;;
9675;SDS011;4876;42.656;23.292;2023-05-16T09:03:00;7.83;;;6.10;;
9675;SDS011;4876;42.656;23.292;2023-05-16T09:05:28;8.77;;;6.33;;
9675;SDS011;4876;42.656;23.292;2023-05-16T09:07:56;15.43;;;7.70;;
9675;SDS011;4876;42.656;23.292;2023-05-16T09:10:23;10.67;;;7.13;;
9675;SDS011;4876;42.656;23.292;2023-05-16T09:12:50;10.10;;;6.80;;
9675;SDS011;4876;42.656;23.292;2023-05-16T09:15:17;11.03;;;5.73;;
9675;SDS011;4876;42.656;23.292;2023-05-16T09:17:45;9.53;;;7.07;;
9675;SDS011;4876;42.656;23.292;2023-05-16T09:20:13;11.23;;;6.77;;
9675;SDS011;4876;42.656;23.292;2023-05-16T09:22:49;20.10;;;7.40;;
9675;SDS011;4876;42.656;23.292;2023-05-16T09:25:19;9.90;;;6.83;;
9675;SDS011;4876;42.656;23.292;2023-05-16T09:27:46;13.80;;;7.37;;
9675;SDS011;4876;42.656;23.292;2023-05-16T09:30:13;14.50;;;7.50;;
9675;SDS011;4876;42.656;23.292;2023-05-16T09:32:42;12.83;;;7.37;;
9675;SDS011;4876;42.656;23.292;2023-05-16T09:35:10;9.20;;;6.97;;
9675;SDS011;4876;42.656;23.292;2023-05-16T09:37:42;12.93;;;7.03;;
9675;SDS011;4876;42.656;23.292;2023-05-16T09:40:10;21.27;;;8.67;;
9675;SDS011;4876;42.656;23.292;2023-05-16T09:42:39;18.73;;;8.13;;
9675;SDS011;4876;42.656;23.292;2023-05-16T09:45:06;14.53;;;7.90;;
9675;SDS011;4876;42.656;23.292;2023-05-16T09:47:37;15.10;;;8.43;;
9675;SDS011;4876;42.656;23.292;2023-05-16T09:50:10;21.90;;;8.20;;
9675;SDS011;4876;42.656;23.292;2023-05-16T09:52:39;12.97;;;8.13;;
9675;SDS011;4876;42.656;23.292;2023-05-16T09:55:06;12.70;;;7.73;;
9675;SDS011;4876;42.656;23.292;2023-05-16T09:57:35;15.43;;;8.20;;
9675;SDS011;4876;42.656;23.292;2023-05-16T10:00:05;18.13;;;8.40;;
9675;SDS011;4876;42.656;23.292;2023-05-16T10:02:36;17.20;;;7.47;;
9675;SDS011;4876;42.656;23.292;2023-05-16T10:05:03;9.63;;;7.07;;
9675;SDS011;4876;42.656;23.292;2023-05-16T10:07:30;12.00;;;7.80;;
9675;SDS011;4876;42.656;23.292;2023-05-16T10:10:04;13.30;;;7.87;;
9675;SDS011;4876;42.656;23.292;2023-05-16T10:12:31;10.13;;;7.90;;
9675;SDS011;4876;42.656;23.292;2023-05-16T10:14:59;12.10;;;7.83;;
9675;SDS011;4876;42.656;23.292;2023-05-16T10:17:29;15.30;;;7.80;;
9675;SDS011;4876;42.656;23.292;2023-05-16T10:19:58;16.57;;;8.87;;
9675;SDS011;4876;42.656;23.292;2023-05-16T10:22:29;13.10;;;7.63;;
9675;SDS011;4876;42.656;23.292;2023-05-16T10:25:07;8.47;;;5.87;;
9675;SDS011;4876;42.656;23.292;2023-05-16T10:27:38;13.23;;;6.40;;
9675;SDS011;4876;42.656;23.292;2023-05-16T10:30:06;17.77;;;7.73;;
9675;SDS011;4876;42.656;23.292;2023-05-16T10:32:35;14.10;;;8.17;;
9675;SDS011;4876;42.656;23.292;2023-05-16T10:35:02;11.17;;;6.80;;
9675;SDS011;4876;42.656;23.292;2023-05-16T10:37:29;16.73;;;8.57;;
9675;SDS011;4876;42.656;23.292;2023-05-16T10:39:57;16.57;;;8.13;;
9675;SDS011;4876;42.656;23.292;2023-05-16T10:42:26;14.73;;;7.83;;
9675;SDS011;4876;42.656;23.292;2023-05-16T10:44:53;11.30;;;7.30;;
9675;SDS011;4876;42.656;23.292;2023-05-16T10:47:21;15.93;;;8.53;;
9675;SDS011;4876;42.656;23.292;2023-05-16T10:49:49;17.47;;;7.53;;
9675;SDS011;4876;42.656;23.292;2023-05-16T10:52:16;12.83;;;8.33;;
9675;SDS011;4876;42.656;23.292;2023-05-16T10:54:45;10.80;;;7.97;;
9675;SDS011;4876;42.656;23.292;2023-05-16T10:57:16;18.57;;;8.13;;
9675;SDS011;4876;42.656;23.292;2023-05-16T10:59:46;19.87;;;7.60;;
9675;SDS011;4876;42.656;23.292;2023-05-16T11:02:21;18.43;;;7.97;;
9675;SDS011;4876;42.656;23.292;2023-05-16T11:04:51;18.03;;;8.33;;
9675;SDS011;4876;42.656;23.292;2023-05-16T11:07:20;14.73;;;8.50;;
9675;SDS011;4876;42.656;23.292;2023-05-16T11:10:02;13.67;;;8.63;;
9675;SDS011;4876;42.656;23.292;2023-05-16T11:12:37;18.03;;;8.83;;
9675;SDS011;4876;42.656;23.292;2023-05-16T11:15:18;9.83;;;8.30;;
9675;SDS011;4876;42.656;23.292;2023-05-16T11:17:46;11.87;;;8.40;;
9675;SDS011;4876;42.656;23.292;2023-05-16T11:20:29;15.27;;;8.63;;
9675;SDS011;4876;42.656;23.292;2023-05-16T11:25:51;13.53;;;8.90;;
9675;SDS011;4876;42.656;23.292;2023-05-16T11:28:19;17.80;;;9.07;;
9675;SDS011;4876;42.656;23.292;2023-05-16T11:30:47;13.60;;;9.00;;
9675;SDS011;4876;42.656;23.292;2023-05-16T11:33:16;19.87;;;9.60;;
9675;SDS011;4876;42.656;23.292;2023-05-16T11:35:45;11.40;;;7.97;;
9675;SDS011;4876;42.656;23.292;2023-05-16T11:38:25;15.00;;;8.30;;
9675;SDS011;4876;42.656;23.292;2023-05-16T11:41:00;15.70;;;8.27;;
9675;SDS011;4876;42.656;23.292;2023-05-16T11:43:27;15.23;;;7.77;;
9675;SDS011;4876;42.656;23.292;2023-05-16T11:45:54;13.03;;;6.93;;
9675;SDS011;4876;42.656;23.292;2023-05-16T11:48:22;16.03;;;8.40;;
9675;SDS011;4876;42.656;23.292;2023-05-16T11:50:51;11.40;;;7.40;;
9675;SDS011;4876;42.656;23.292;2023-05-16T11:53:19;15.83;;;7.77;;
9675;SDS011;4876;42.656;23.292;2023-05-16T11:55:47;12.97;;;7.37;;
9675;SDS011;4876;42.656;23.292;2023-05-16T11:58:16;13.30;;;7.97;;
9675;SDS011;4876;42.656;23.292;2023-05-16T12:00:47;12.63;;;8.27;;
9675;SDS011;4876;42.656;23.292;2023-05-16T12:03:16;11.60;;;9.03;;
9675;SDS011;4876;42.656;23.292;2023-05-16T12:05:48;17.27;;;8.30;;
9675;SDS011;4876;42.656;23.292;2023-05-16T12:08:18;17.83;;;8.60;;
9675;SDS011;4876;42.656;23.292;2023-05-16T12:10:47;17.30;;;8.20;;
9675;SDS011;4876;42.656;23.292;2023-05-16T12:13:15;14.17;;;7.83;;
9675;SDS011;4876;42.656;23.292;2023-05-16T12:15:42;17.10;;;8.03;;
9675;SDS011;4876;42.656;23.292;2023-05-16T12:18:09;20.20;;;8.07;;
9675;SDS011;4876;42.656;23.292;2023-05-16T12:20:37;18.63;;;8.67;;
9675;SDS011;4876;42.656;23.292;2023-05-16T12:23:06;24.57;;;8.67;;
9675;SDS011;4876;42.656;23.292;2023-05-16T12:25:36;12.50;;;7.83;;
9675;SDS011;4876;42.656;23.292;2023-05-16T12:28:06;20.70;;;9.13;;
9675;SDS011;4876;42.656;23.292;2023-05-16T12:30:34;13.10;;;7.13;;
9675;SDS011;4876;42.656;23.292;2023-05-16T12:33:01;18.03;;;7.90;;
9675;SDS011;4876;42.656;23.292;2023-05-16T12:35:30;16.53;;;7.83;;
9675;SDS011;4876;42.656;23.292;2023-05-16T12:37:57;15.87;;;8.50;;
9675;SDS011;4876;42.656;23.292;2023-05-16T12:40:28;18.30;;;9.10;;
9675;SDS011;4876;42.656;23.292;2023-05-16T12:42:55;12.60;;;8.73;;
9675;SDS011;4876;42.656;23.292;2023-05-16T12:45:22;10.87;;;7.83;;
9675;SDS011;4876;42.656;23.292;2023-05-16T12:47:50;14.17;;;8.50;;
9675;SDS011;4876;42.656;23.292;2023-05-16T12:50:16;12.97;;;8.43;;
9675;SDS011;4876;42.656;23.292;2023-05-16T12:52:47;13.87;;;7.90;;
9675;SDS011;4876;42.656;23.292;2023-05-16T12:55:15;19.80;;;7.57;;
9675;SDS011;4876;42.656;23.292;2023-05-16T12:57:44;18.87;;;8.60;;
9675;SDS011;4876;42.656;23.292;2023-05-16T13:00:12;16.57;;;8.83;;
9675;SDS011;4876;42.656;23.292;2023-05-16T13:02:42;20.20;;;9.40;;
9675;SDS011;4876;42.656;23.292;2023-05-16T13:05:10;22.07;;;11.47;;
9675;SDS011;4876;42.656;23.292;2023-05-16T13:07:37;27.17;;;12.00;;
9675;SDS011;4876;42.656;23.292;2023-05-16T13:10:05;30.50;;;12.37;;
9675;SDS011;4876;42.656;23.292;2023-05-16T13:12:35;29.17;;;11.77;;
9675;SDS011;4876;42.656;23.292;2023-05-16T13:15:03;23.70;;;12.20;;
9675;SDS011;4876;42.656;23.292;2023-05-16T13:17:31;23.97;;;11.07;;
9675;SDS011;4876;42.656;23.292;2023-05-16T13:19:58;22.40;;;11.37;;
9675;SDS011;4876;42.656;23.292;2023-05-16T13:22:25;30.23;;;12.40;;
9675;SDS011;4876;42.656;23.292;2023-05-16T13:24:52;35.23;;;11.97;;
9675;SDS011;4876;42.656;23.292;2023-05-16T13:27:19;23.30;;;11.57;;
9675;SDS011;4876;42.656;23.292;2023-05-16T13:29:46;24.10;;;11.77;;
9675;SDS011;4876;42.656;23.292;2023-05-16T13:32:14;24.97;;;11.50;;
9675;SDS011;4876;42.656;23.292;2023-05-16T13:34:42;23.63;;;11.90;;
9675;SDS011;4876;42.656;23.292;2023-05-16T13:37:08;29.33;;;11.63;;
9675;SDS011;4876;42.656;23.292;2023-05-16T13:39:35;21.00;;;11.50;;
9675;SDS011;4876;42.656;23.292;2023-05-16T13:42:02;24.30;;;12.17;;
9675;SDS011;4876;42.656;23.292;2023-05-16T13:44:29;24.97;;;12.17;;
9675;SDS011;4876;42.656;23.292;2023-05-16T13:46:56;26.50;;;12.47;;
9675;SDS011;4876;42.656;23.292;2023-05-16T13:49:24;25.43;;;12.50;;
9675;SDS011;4876;42.656;23.292;2023-05-16T13:51:51;26.93;;;12.20;;
9675;SDS011;4876;42.656;23.292;2023-05-16T13:54:18;22.97;;;11.97;;
9675;SDS011;4876;42.656;23.292;2023-05-16T13:56:46;25.53;;;12.30;;
9675;SDS011;4876;42.656;23.292;2023-05-16T13:59:12;25.37;;;12.67;;
9675;SDS011;4876;42.656;23.292;2023-05-16T14:01:40;25.37;;;12.77;;
9675;SDS011;4876;42.656;23.292;2023-05-16T14:04:07;27.07;;;12.53;;
9675;SDS011;4876;42.656;23.292;2023-05-16T14:06:35;26.73;;;12.40;;
9675;SDS011;4876;42.656;23.292;2023-05-16T14:09:02;21.50;;;12.40;;
9675;SDS011;4876;42.656;23.292;2023-05-16T14:11:29;22.20;;;12.70;;
9675;SDS011;4876;42.656;23.292;2023-05-16T14:13:55;23.97;;;12.70;;
9675;SDS011;4876;42.656;23.292;2023-05-16T14:16:22;21.70;;;13.53;;
9675;SDS011;4876;42.656;23.292;2023-05-16T14:18:49;22.90;;;12.77;;
9675;SDS011;4876;42.656;23.292;2023-05-16T14:21:16;24.40;;;14.00;;
9675;SDS011;4876;42.656;23.292;2023-05-16T14:23:45;20.10;;;14.27;;
9675;SDS011;4876;42.656;23.292;2023-05-16T14:26:12;22.10;;;12.97;;
9675;SDS011;4876;42.656;23.292;2023-05-16T14:28:40;26.20;;;13.60;;
9675;SDS011;4876;42.656;23.292;2023-05-16T14:31:07;26.70;;;15.33;;
9675;SDS011;4876;42.656;23.292;2023-05-16T14:33:37;26.77;;;14.63;;
9675;SDS011;4876;42.656;23.292;2023-05-16T14:36:05;27.00;;;13.73;;
9675;SDS011;4876;42.656;23.292;2023-05-16T14:38:33;22.90;;;14.17;;
9675;SDS011;4876;42.656;23.292;2023-05-16T14:41:01;19.90;;;13.10;;
9675;SDS011;4876;42.656;23.292;2023-05-16T14:43:28;27.27;;;15.40;;
9675;SDS011;4876;42.656;23.292;2023-05-16T14:45:55;28.30;;;14.70;;
9675;SDS011;4876;42.656;23.292;2023-05-16T14:48:22;18.43;;;14.43;;